sensor_id;sensor_type;location;lat;lon;timestamp;P1;durP1;ratioP1;P2;durP2;ratioP2
19161;SDS011;9713;48.140;11.530;2023-02-08T00:01:09;21.03;;;9.03;;
19161;SDS011;9713;48.140;11.530;2023-02-08T00:04:53;16.83;;;8.40;;
19161;SDS011;9713;48.140;11.530;2023-02-08T00:08:36;21.43;;;9.87;;
19161;SDS011;9713;48.140;11.530;2023-02-08T00:12:19;21.57;;;9.10;;
19161;SDS011;9713;48.140;11.530;2023-02-08T00:16:04;22.40;;;9.37;;
19161;SDS011;9713;48.140;11.530;2023-02-08T00:19:47;23.33;;;9.37;;
19161;SDS011;9713;48.140;11.530;2023-02-08T00:23:32;21.87;;;8.73;;
19161;SDS011;9713;48.140;11.530;2023-02-08T00:27:14;21.70;;;9.47;;
19161;SDS011;9713;48.140;11.530;2023-02-08T00:30:57;21.87;;;8.97;;
19161;SDS011;9713;48.140;11.530;2023-02-08T00:34:41;25.17;;;9.23;;
19161;SDS011;9713;48.140;11.530;2023-02-08T00:38:24;22.43;;;9.90;;
19161;SDS011;9713;48.140;11.530;2023-02-08T00:42:07;22.53;;;8.80;;
19161;SDS011;9713;48.140;11.530;2023-02-08T00:45:52;22.83;;;9.60;;
19161;SDS011;9713;48.140;11.530;2023-02-08T00:49:35;23.00;;;9.73;;
19161;SDS011;9713;48.140;11.530;2023-02-08T00:53:19;23.17;;;10.07;;
19161;SDS011;9713;48.140;11.530;2023-02-08T00:57:02;23.50;;;9.67;;
19161;SDS011;9713;48.140;11.530;2023-02-08T01:00:45;23.17;;;9.27;;
19161;SDS011;9713;48.140;11.530;2023-02-08T01:04:28;22.77;;;9.33;;
19161;SDS011;9713;48.140;11.530;2023-02-08T01:08:11;25.37;;;10.17;;
19161;SDS011;9713;48.140;11.530;2023-02-08T01:11:55;20.30;;;8.83;;
19161;SDS011;9713;48.140;11.530;2023-02-08T01:15:37;26.30;;;9.77;;
19161;SDS011;9713;48.140;11.530;2023-02-08T01:19:20;24.63;;;9.20;;
19161;SDS011;9713;48.140;11.530;2023-02-08T01:23:03;22.83;;;9.10;;
19161;SDS011;9713;48.140;11.530;2023-02-08T01:26:46;25.33;;;9.80;;
19161;SDS011;9713;48.140;11.530;2023-02-08T01:30:30;24.07;;;9.77;;
19161;SDS011;9713;48.140;11.530;2023-02-08T01:34:12;22.63;;;9.50;;
19161;SDS011;9713;48.140;11.530;2023-02-08T01:37:55;25.33;;;10.40;;
19161;SDS011;9713;48.140;11.530;2023-02-08T01:41:38;25.17;;;10.00;;
19161;SDS011;9713;48.140;11.530;2023-02-08T01:45:24;21.93;;;9.73;;
19161;SDS011;9713;48.140;11.530;2023-02-08T01:49:10;23.43;;;10.23;;
19161;SDS011;9713;48.140;11.530;2023-02-08T01:52:57;23.97;;;9.83;;
19161;SDS011;9713;48.140;11.530;2023-02-08T01:56:41;24.20;;;10.07;;
19161;SDS011;9713;48.140;11.530;2023-02-08T02:00:25;23.60;;;9.80;;
19161;SDS011;9713;48.140;11.530;2023-02-08T02:04:09;26.43;;;10.53;;
19161;SDS011;9713;48.140;11.530;2023-02-08T02:07:53;25.10;;;10.37;;
19161;SDS011;9713;48.140;11.530;2023-02-08T02:11:37;25.33;;;10.53;;
19161;SDS011;9713;48.140;11.530;2023-02-08T02:15:19;24.27;;;10.77;;
19161;SDS011;9713;48.140;11.530;2023-02-08T02:19:02;25.10;;;10.47;;
19161;SDS011;9713;48.140;11.530;2023-02-08T02:27:12;24.60;;;10.23;;
19161;SDS011;9713;48.140;11.530;2023-02-08T02:35:24;27.17;;;10.87;;
19161;SDS011;9713;48.140;11.530;2023-02-08T02:39:13;25.93;;;10.53;;
19161;SDS011;9713;48.140;11.530;2023-02-08T02:43:01;28.70;;;11.20;;
19161;SDS011;9713;48.140;11.530;2023-02-08T02:47:10;21.90;;;9.50;;
19161;SDS011;9713;48.140;11.530;2023-02-08T02:50:57;26.57;;;10.77;;
19161;SDS011;9713;48.140;11.530;2023-02-08T02:54:43;25.07;;;10.23;;
19161;SDS011;9713;48.140;11.530;2023-02-08T02:58:27;26.63;;;9.83;;
19161;SDS011;9713;48.140;11.530;2023-02-08T03:02:13;26.07;;;11.53;;
19161;SDS011;9713;48.140;11.530;2023-02-08T03:05:57;24.70;;;10.83;;
19161;SDS011;9713;48.140;11.530;2023-02-08T03:09:46;28.90;;;10.43;;
19161;SDS011;9713;48.140;11.530;2023-02-08T03:13:36;24.67;;;10.10;;
19161;SDS011;9713;48.140;11.530;2023-02-08T03:17:32;26.47;;;10.90;;
19161;SDS011;9713;48.140;11.530;2023-02-08T03:21:18;24.83;;;10.27;;
19161;SDS011;9713;48.140;11.530;2023-02-08T03:25:04;24.40;;;10.30;;
19161;SDS011;9713;48.140;11.530;2023-02-08T03:28:52;26.10;;;10.87;;
19161;SDS011;9713;48.140;11.530;2023-02-08T03:32:40;24.63;;;10.40;;
19161;SDS011;9713;48.140;11.530;2023-02-08T03:36:24;27.73;;;11.43;;
19161;SDS011;9713;48.140;11.530;2023-02-08T03:40:10;27.20;;;11.03;;
19161;SDS011;9713;48.140;11.530;2023-02-08T03:43:56;24.90;;;10.73;;
19161;SDS011;9713;48.140;11.530;2023-02-08T03:47:43;29.37;;;11.77;;
19161;SDS011;9713;48.140;11.530;2023-02-08T03:51:27;26.67;;;10.03;;
19161;SDS011;9713;48.140;11.530;2023-02-08T03:55:12;24.63;;;10.30;;
19161;SDS011;9713;48.140;11.530;2023-02-08T03:58:58;25.50;;;10.60;;
19161;SDS011;9713;48.140;11.530;2023-02-08T04:02:47;23.63;;;10.70;;
19161;SDS011;9713;48.140;11.530;2023-02-08T04:06:33;26.67;;;10.90;;
19161;SDS011;9713;48.140;11.530;2023-02-08T04:10:16;26.53;;;10.90;;
19161;SDS011;9713;48.140;11.530;2023-02-08T04:13:59;24.23;;;10.60;;
19161;SDS011;9713;48.140;11.530;2023-02-08T04:17:41;27.13;;;11.33;;
19161;SDS011;9713;48.140;11.530;2023-02-08T04:21:26;26.83;;;12.03;;
19161;SDS011;9713;48.140;11.530;2023-02-08T04:25:08;26.83;;;10.97;;
19161;SDS011;9713;48.140;11.530;2023-02-08T04:28:51;25.33;;;11.37;;
19161;SDS011;9713;48.140;11.530;2023-02-08T04:32:37;27.57;;;11.03;;
19161;SDS011;9713;48.140;11.530;2023-02-08T04:36:20;30.00;;;11.60;;
19161;SDS011;9713;48.140;11.530;2023-02-08T04:40:04;26.03;;;11.27;;
19161;SDS011;9713;48.140;11.530;2023-02-08T04:43:47;28.87;;;10.90;;
19161;SDS011;9713;48.140;11.530;2023-02-08T04:47:30;30.27;;;11.60;;
19161;SDS011;9713;48.140;11.530;2023-02-08T04:51:13;29.60;;;11.63;;
19161;SDS011;9713;48.140;11.530;2023-02-08T04:54:55;27.43;;;11.40;;
19161;SDS011;9713;48.140;11.530;2023-02-08T04:58:39;26.30;;;11.10;;
19161;SDS011;9713;48.140;11.530;2023-02-08T05:02:22;31.17;;;11.60;;
19161;SDS011;9713;48.140;11.530;2023-02-08T05:06:05;27.83;;;11.53;;
19161;SDS011;9713;48.140;11.530;2023-02-08T05:09:48;28.57;;;11.63;;
19161;SDS011;9713;48.140;11.530;2023-02-08T05:13:31;29.57;;;11.30;;
19161;SDS011;9713;48.140;11.530;2023-02-08T05:17:17;31.70;;;12.70;;
19161;SDS011;9713;48.140;11.530;2023-02-08T05:21:00;28.43;;;11.80;;
19161;SDS011;9713;48.140;11.530;2023-02-08T05:24:44;28.73;;;11.90;;
19161;SDS011;9713;48.140;11.530;2023-02-08T05:28:29;29.43;;;11.80;;
19161;SDS011;9713;48.140;11.530;2023-02-08T05:32:11;29.03;;;12.27;;
19161;SDS011;9713;48.140;11.530;2023-02-08T05:35:56;29.70;;;11.87;;
19161;SDS011;9713;48.140;11.530;2023-02-08T05:39:39;31.67;;;13.10;;
19161;SDS011;9713;48.140;11.530;2023-02-08T05:43:22;30.30;;;12.03;;
19161;SDS011;9713;48.140;11.530;2023-02-08T05:47:05;29.67;;;12.73;;
19161;SDS011;9713;48.140;11.530;2023-02-08T05:50:48;32.80;;;13.00;;
19161;SDS011;9713;48.140;11.530;2023-02-08T05:54:32;29.80;;;12.73;;
19161;SDS011;9713;48.140;11.530;2023-02-08T05:58:14;35.77;;;12.47;;
19161;SDS011;9713;48.140;11.530;2023-02-08T06:01:57;34.47;;;14.03;;
19161;SDS011;9713;48.140;11.530;2023-02-08T06:05:40;30.23;;;12.80;;
19161;SDS011;9713;48.140;11.530;2023-02-08T06:09:23;31.77;;;12.63;;
19161;SDS011;9713;48.140;11.530;2023-02-08T06:13:07;36.37;;;12.40;;
19161;SDS011;9713;48.140;11.530;2023-02-08T06:16:50;31.83;;;12.57;;
19161;SDS011;9713;48.140;11.530;2023-02-08T06:20:33;34.07;;;12.90;;
19161;SDS011;9713;48.140;11.530;2023-02-08T06:24:16;29.60;;;12.73;;
19161;SDS011;9713;48.140;11.530;2023-02-08T06:27:58;31.43;;;13.53;;
19161;SDS011;9713;48.140;11.530;2023-02-08T06:31:42;37.23;;;14.03;;
19161;SDS011;9713;48.140;11.530;2023-02-08T06:35:25;36.53;;;13.83;;
19161;SDS011;9713;48.140;11.530;2023-02-08T06:39:08;32.03;;;13.87;;
19161;SDS011;9713;48.140;11.530;2023-02-08T06:42:51;32.67;;;13.70;;
19161;SDS011;9713;48.140;11.530;2023-02-08T06:46:33;32.03;;;13.77;;
19161;SDS011;9713;48.140;11.530;2023-02-08T06:50:18;33.53;;;13.53;;
19161;SDS011;9713;48.140;11.530;2023-02-08T06:54:04;34.77;;;14.53;;
19161;SDS011;9713;48.140;11.530;2023-02-08T06:57:46;30.83;;;13.40;;
19161;SDS011;9713;48.140;11.530;2023-02-08T07:01:29;35.03;;;13.87;;
19161;SDS011;9713;48.140;11.530;2023-02-08T07:05:12;36.87;;;14.67;;
19161;SDS011;9713;48.140;11.530;2023-02-08T07:08:56;33.93;;;13.73;;
19161;SDS011;9713;48.140;11.530;2023-02-08T07:12:39;35.57;;;14.33;;
19161;SDS011;9713;48.140;11.530;2023-02-08T07:16:21;32.40;;;14.30;;
19161;SDS011;9713;48.140;11.530;2023-02-08T07:20:04;34.67;;;14.03;;
19161;SDS011;9713;48.140;11.530;2023-02-08T07:23:48;36.37;;;14.63;;
19161;SDS011;9713;48.140;11.530;2023-02-08T07:27:32;35.90;;;14.47;;
19161;SDS011;9713;48.140;11.530;2023-02-08T07:31:15;37.17;;;14.00;;
19161;SDS011;9713;48.140;11.530;2023-02-08T07:34:59;35.17;;;14.37;;
19161;SDS011;9713;48.140;11.530;2023-02-08T07:38:41;31.37;;;14.53;;
19161;SDS011;9713;48.140;11.530;2023-02-08T07:42:27;35.90;;;13.97;;
19161;SDS011;9713;48.140;11.530;2023-02-08T07:46:12;33.63;;;14.33;;
19161;SDS011;9713;48.140;11.530;2023-02-08T07:49:55;33.57;;;13.83;;
19161;SDS011;9713;48.140;11.530;2023-02-08T07:53:38;34.63;;;14.37;;
19161;SDS011;9713;48.140;11.530;2023-02-08T07:57:21;36.13;;;14.40;;
19161;SDS011;9713;48.140;11.530;2023-02-08T08:01:04;35.93;;;14.43;;
19161;SDS011;9713;48.140;11.530;2023-02-08T08:05:03;35.10;;;14.27;;
19161;SDS011;9713;48.140;11.530;2023-02-08T08:08:46;31.50;;;14.00;;
19161;SDS011;9713;48.140;11.530;2023-02-08T08:12:29;33.40;;;13.73;;
19161;SDS011;9713;48.140;11.530;2023-02-08T08:16:12;29.80;;;13.60;;
19161;SDS011;9713;48.140;11.530;2023-02-08T08:19:55;34.83;;;14.20;;
19161;SDS011;9713;48.140;11.530;2023-02-08T08:23:39;33.43;;;14.47;;
19161;SDS011;9713;48.140;11.530;2023-02-08T08:27:21;32.30;;;13.60;;
19161;SDS011;9713;48.140;11.530;2023-02-08T08:31:08;30.43;;;13.23;;
19161;SDS011;9713;48.140;11.530;2023-02-08T08:34:51;37.70;;;14.40;;
19161;SDS011;9713;48.140;11.530;2023-02-08T08:38:34;29.50;;;13.93;;
19161;SDS011;9713;48.140;11.530;2023-02-08T08:42:18;29.27;;;13.67;;
19161;SDS011;9713;48.140;11.530;2023-02-08T08:46:01;35.13;;;13.77;;
19161;SDS011;9713;48.140;11.530;2023-02-08T08:49:44;32.07;;;13.73;;
19161;SDS011;9713;48.140;11.530;2023-02-08T08:53:28;33.03;;;13.90;;
19161;SDS011;9713;48.140;11.530;2023-02-08T08:57:11;29.37;;;13.03;;
19161;SDS011;9713;48.140;11.530;2023-02-08T09:00:56;30.20;;;13.33;;
19161;SDS011;9713;48.140;11.530;2023-02-08T09:04:40;33.63;;;13.70;;
19161;SDS011;9713;48.140;11.530;2023-02-08T09:08:23;29.70;;;13.57;;
19161;SDS011;9713;48.140;11.530;2023-02-08T09:12:05;28.53;;;12.77;;
19161;SDS011;9713;48.140;11.530;2023-02-08T09:15:48;28.30;;;11.77;;
19161;SDS011;9713;48.140;11.530;2023-02-08T09:19:33;30.80;;;13.00;;
19161;SDS011;9713;48.140;11.530;2023-02-08T09:23:15;28.17;;;13.07;;
19161;SDS011;9713;48.140;11.530;2023-02-08T09:26:58;29.07;;;13.13;;
19161;SDS011;9713;48.140;11.530;2023-02-08T09:30:41;25.80;;;11.97;;
19161;SDS011;9713;48.140;11.530;2023-02-08T09:34:24;34.97;;;13.67;;
19161;SDS011;9713;48.140;11.530;2023-02-08T09:38:08;30.20;;;12.47;;
19161;SDS011;9713;48.140;11.530;2023-02-08T09:41:56;29.17;;;13.43;;
19161;SDS011;9713;48.140;11.530;2023-02-08T09:45:47;31.23;;;13.47;;
19161;SDS011;9713;48.140;11.530;2023-02-08T09:49:41;29.83;;;14.00;;
19161;SDS011;9713;48.140;11.530;2023-02-08T09:53:30;33.93;;;13.37;;
19161;SDS011;9713;48.140;11.530;2023-02-08T09:57:15;30.90;;;13.20;;
19161;SDS011;9713;48.140;11.530;2023-02-08T10:01:00;32.33;;;14.30;;
19161;SDS011;9713;48.140;11.530;2023-02-08T10:04:50;32.03;;;13.47;;
19161;SDS011;9713;48.140;11.530;2023-02-08T10:08:39;33.27;;;13.50;;
19161;SDS011;9713;48.140;11.530;2023-02-08T10:12:26;34.30;;;14.57;;
19161;SDS011;9713;48.140;11.530;2023-02-08T10:16:17;31.47;;;13.80;;
19161;SDS011;9713;48.140;11.530;2023-02-08T10:20:12;30.57;;;13.77;;
19161;SDS011;9713;48.140;11.530;2023-02-08T10:24:06;35.13;;;14.20;;
19161;SDS011;9713;48.140;11.530;2023-02-08T10:28:04;34.00;;;14.80;;
19161;SDS011;9713;48.140;11.530;2023-02-08T10:32:01;36.80;;;14.97;;
19161;SDS011;9713;48.140;11.530;2023-02-08T10:35:48;33.30;;;14.00;;
19161;SDS011;9713;48.140;11.530;2023-02-08T10:39:32;29.17;;;13.07;;
19161;SDS011;9713;48.140;11.530;2023-02-08T10:43:18;30.07;;;13.77;;
19161;SDS011;9713;48.140;11.530;2023-02-08T10:47:06;27.77;;;12.87;;
19161;SDS011;9713;48.140;11.530;2023-02-08T10:50:53;32.60;;;13.83;;
19161;SDS011;9713;48.140;11.530;2023-02-08T10:54:37;30.03;;;13.37;;
19161;SDS011;9713;48.140;11.530;2023-02-08T10:58:21;33.37;;;13.80;;
19161;SDS011;9713;48.140;11.530;2023-02-08T11:02:07;35.33;;;13.80;;
19161;SDS011;9713;48.140;11.530;2023-02-08T11:06:01;29.20;;;12.47;;
19161;SDS011;9713;48.140;11.530;2023-02-08T11:09:45;29.23;;;13.40;;
19161;SDS011;9713;48.140;11.530;2023-02-08T11:13:31;29.50;;;13.70;;
19161;SDS011;9713;48.140;11.530;2023-02-08T11:17:21;32.40;;;14.23;;
19161;SDS011;9713;48.140;11.530;2023-02-08T11:21:08;28.00;;;12.60;;
19161;SDS011;9713;48.140;11.530;2023-02-08T11:25:03;30.07;;;13.43;;
19161;SDS011;9713;48.140;11.530;2023-02-08T11:29:00;30.13;;;13.67;;
19161;SDS011;9713;48.140;11.530;2023-02-08T11:32:44;26.93;;;12.27;;
19161;SDS011;9713;48.140;11.530;2023-02-08T11:36:28;29.07;;;12.53;;
19161;SDS011;9713;48.140;11.530;2023-02-08T11:40:17;29.07;;;12.50;;
19161;SDS011;9713;48.140;11.530;2023-02-08T11:44:03;29.03;;;12.60;;
19161;SDS011;9713;48.140;11.530;2023-02-08T11:47:47;31.67;;;13.00;;
19161;SDS011;9713;48.140;11.530;2023-02-08T11:51:31;30.77;;;13.90;;
19161;SDS011;9713;48.140;11.530;2023-02-08T11:55:21;27.43;;;13.50;;
19161;SDS011;9713;48.140;11.530;2023-02-08T11:59:15;28.43;;;13.73;;
19161;SDS011;9713;48.140;11.530;2023-02-08T12:03:00;28.67;;;13.03;;
19161;SDS011;9713;48.140;11.530;2023-02-08T12:06:52;30.10;;;13.73;;
19161;SDS011;9713;48.140;11.530;2023-02-08T12:11:15;33.00;;;15.53;;
19161;SDS011;9713;48.140;11.530;2023-02-08T12:15:00;35.33;;;16.03;;
19161;SDS011;9713;48.140;11.530;2023-02-08T12:18:49;35.60;;;16.73;;
19161;SDS011;9713;48.140;11.530;2023-02-08T12:22:39;34.87;;;16.50;;
19161;SDS011;9713;48.140;11.530;2023-02-08T12:26:33;34.23;;;16.30;;
19161;SDS011;9713;48.140;11.530;2023-02-08T12:30:26;34.23;;;16.17;;
19161;SDS011;9713;48.140;11.530;2023-02-08T12:34:14;36.93;;;16.07;;
19161;SDS011;9713;48.140;11.530;2023-02-08T12:38:01;37.00;;;16.27;;
19161;SDS011;9713;48.140;11.530;2023-02-08T12:42:08;34.40;;;16.17;;
19161;SDS011;9713;48.140;11.530;2023-02-08T12:46:03;37.87;;;18.13;;
19161;SDS011;9713;48.140;11.530;2023-02-08T12:50:02;36.10;;;17.53;;
19161;SDS011;9713;48.140;11.530;2023-02-08T12:53:51;35.37;;;17.70;;
19161;SDS011;9713;48.140;11.530;2023-02-08T12:57:37;39.07;;;17.37;;
19161;SDS011;9713;48.140;11.530;2023-02-08T13:01:22;34.07;;;16.70;;
19161;SDS011;9713;48.140;11.530;2023-02-08T13:05:06;36.57;;;17.57;;
19161;SDS011;9713;48.140;11.530;2023-02-08T13:08:51;33.93;;;15.70;;
19161;SDS011;9713;48.140;11.530;2023-02-08T13:12:37;38.00;;;17.97;;
19161;SDS011;9713;48.140;11.530;2023-02-08T13:16:23;33.60;;;16.80;;
19161;SDS011;9713;48.140;11.530;2023-02-08T13:20:13;36.93;;;17.73;;
19161;SDS011;9713;48.140;11.530;2023-02-08T13:24:01;35.73;;;17.47;;
19161;SDS011;9713;48.140;11.530;2023-02-08T13:27:46;33.90;;;16.43;;
19161;SDS011;9713;48.140;11.530;2023-02-08T13:31:30;31.37;;;16.03;;
19161;SDS011;9713;48.140;11.530;2023-02-08T13:35:16;32.67;;;16.00;;
19161;SDS011;9713;48.140;11.530;2023-02-08T13:39:02;31.90;;;16.10;;
19161;SDS011;9713;48.140;11.530;2023-02-08T13:42:48;33.30;;;16.23;;
19161;SDS011;9713;48.140;11.530;2023-02-08T13:46:34;36.13;;;16.27;;
19161;SDS011;9713;48.140;11.530;2023-02-08T13:50:39;33.73;;;15.53;;
19161;SDS011;9713;48.140;11.530;2023-02-08T13:54:27;30.73;;;15.33;;
19161;SDS011;9713;48.140;11.530;2023-02-08T13:58:35;29.93;;;14.90;;
19161;SDS011;9713;48.140;11.530;2023-02-08T14:02:56;28.23;;;13.90;;
19161;SDS011;9713;48.140;11.530;2023-02-08T14:06:42;28.77;;;14.30;;
19161;SDS011;9713;48.140;11.530;2023-02-08T14:10:28;29.40;;;15.27;;
19161;SDS011;9713;48.140;11.530;2023-02-08T14:14:19;27.50;;;14.23;;
19161;SDS011;9713;48.140;11.530;2023-02-08T14:18:18;31.57;;;14.70;;
19161;SDS011;9713;48.140;11.530;2023-02-08T14:22:06;28.73;;;14.23;;
19161;SDS011;9713;48.140;11.530;2023-02-08T14:25:58;25.93;;;13.33;;
19161;SDS011;9713;48.140;11.530;2023-02-08T14:29:54;28.90;;;13.53;;
19161;SDS011;9713;48.140;11.530;2023-02-08T14:33:39;28.53;;;13.40;;
19161;SDS011;9713;48.140;11.530;2023-02-08T14:37:27;28.00;;;14.37;;
19161;SDS011;9713;48.140;11.530;2023-02-08T14:41:11;25.70;;;12.77;;
19161;SDS011;9713;48.140;11.530;2023-02-08T14:45:29;28.70;;;13.67;;
19161;SDS011;9713;48.140;11.530;2023-02-08T14:49:13;23.47;;;13.00;;
19161;SDS011;9713;48.140;11.530;2023-02-08T14:52:59;24.00;;;12.37;;
19161;SDS011;9713;48.140;11.530;2023-02-08T14:56:49;25.10;;;12.83;;
19161;SDS011;9713;48.140;11.530;2023-02-08T15:00:37;29.60;;;13.43;;
19161;SDS011;9713;48.140;11.530;2023-02-08T15:04:20;25.80;;;12.70;;
19161;SDS011;9713;48.140;11.530;2023-02-08T15:08:03;24.70;;;12.87;;
19161;SDS011;9713;48.140;11.530;2023-02-08T15:11:47;27.37;;;12.83;;
19161;SDS011;9713;48.140;11.530;2023-02-08T15:15:33;24.37;;;12.33;;
19161;SDS011;9713;48.140;11.530;2023-02-08T15:19:20;26.40;;;12.20;;
19161;SDS011;9713;48.140;11.530;2023-02-08T15:23:06;23.47;;;12.00;;
19161;SDS011;9713;48.140;11.530;2023-02-08T15:27:15;27.77;;;12.13;;
19161;SDS011;9713;48.140;11.530;2023-02-08T15:31:02;22.50;;;11.23;;
19161;SDS011;9713;48.140;11.530;2023-02-08T15:34:49;22.73;;;11.77;;
19161;SDS011;9713;48.140;11.530;2023-02-08T15:38:35;22.70;;;11.60;;
19161;SDS011;9713;48.140;11.530;2023-02-08T15:42:20;22.93;;;11.53;;
19161;SDS011;9713;48.140;11.530;2023-02-08T15:46:04;22.30;;;12.23;;
19161;SDS011;9713;48.140;11.530;2023-02-08T15:49:49;24.57;;;12.23;;
19161;SDS011;9713;48.140;11.530;2023-02-08T15:53:35;24.70;;;12.73;;
19161;SDS011;9713;48.140;11.530;2023-02-08T15:57:30;23.67;;;12.30;;
19161;SDS011;9713;48.140;11.530;2023-02-08T16:01:16;23.47;;;11.80;;
19161;SDS011;9713;48.140;11.530;2023-02-08T16:05:09;23.07;;;12.23;;
19161;SDS011;9713;48.140;11.530;2023-02-08T16:08:54;27.73;;;13.33;;
19161;SDS011;9713;48.140;11.530;2023-02-08T16:12:39;21.67;;;10.97;;
19161;SDS011;9713;48.140;11.530;2023-02-08T16:16:23;25.60;;;12.37;;
19161;SDS011;9713;48.140;11.530;2023-02-08T16:20:21;23.83;;;11.93;;
19161;SDS011;9713;48.140;11.530;2023-02-08T16:24:18;27.73;;;12.20;;
19161;SDS011;9713;48.140;11.530;2023-02-08T16:28:03;26.40;;;12.47;;
19161;SDS011;9713;48.140;11.530;2023-02-08T16:31:47;24.87;;;12.53;;
19161;SDS011;9713;48.140;11.530;2023-02-08T16:35:41;23.70;;;11.63;;
19161;SDS011;9713;48.140;11.530;2023-02-08T16:43:34;23.90;;;11.13;;
19161;SDS011;9713;48.140;11.530;2023-02-08T16:47:24;28.10;;;12.07;;
19161;SDS011;9713;48.140;11.530;2023-02-08T16:51:10;25.37;;;11.77;;
19161;SDS011;9713;48.140;11.530;2023-02-08T16:54:55;23.40;;;11.37;;
19161;SDS011;9713;48.140;11.530;2023-02-08T16:58:39;29.03;;;11.67;;
19161;SDS011;9713;48.140;11.530;2023-02-08T17:02:22;23.47;;;11.20;;
19161;SDS011;9713;48.140;11.530;2023-02-08T17:06:05;28.17;;;12.17;;
19161;SDS011;9713;48.140;11.530;2023-02-08T17:09:50;26.03;;;11.57;;
19161;SDS011;9713;48.140;11.530;2023-02-08T17:13:32;26.07;;;10.73;;
19161;SDS011;9713;48.140;11.530;2023-02-08T17:17:15;23.40;;;10.63;;
19161;SDS011;9713;48.140;11.530;2023-02-08T17:20:58;26.60;;;11.20;;
19161;SDS011;9713;48.140;11.530;2023-02-08T17:24:42;28.07;;;11.30;;
19161;SDS011;9713;48.140;11.530;2023-02-08T17:28:26;26.17;;;11.10;;
19161;SDS011;9713;48.140;11.530;2023-02-08T17:32:09;25.57;;;12.00;;
19161;SDS011;9713;48.140;11.530;2023-02-08T17:35:51;26.30;;;11.13;;
19161;SDS011;9713;48.140;11.530;2023-02-08T17:39:34;27.43;;;11.53;;
19161;SDS011;9713;48.140;11.530;2023-02-08T17:43:17;24.63;;;11.33;;
19161;SDS011;9713;48.140;11.530;2023-02-08T17:47:01;29.23;;;11.80;;
19161;SDS011;9713;48.140;11.530;2023-02-08T17:50:46;30.57;;;12.13;;
19161;SDS011;9713;48.140;11.530;2023-02-08T17:54:31;25.73;;;11.50;;
19161;SDS011;9713;48.140;11.530;2023-02-08T17:58:16;25.90;;;11.53;;
19161;SDS011;9713;48.140;11.530;2023-02-08T18:02:00;26.57;;;11.23;;
19161;SDS011;9713;48.140;11.530;2023-02-08T18:05:43;29.60;;;11.03;;
19161;SDS011;9713;48.140;11.530;2023-02-08T18:09:26;27.37;;;11.90;;
19161;SDS011;9713;48.140;11.530;2023-02-08T18:13:09;26.10;;;11.90;;
19161;SDS011;9713;48.140;11.530;2023-02-08T18:16:51;24.50;;;11.00;;
19161;SDS011;9713;48.140;11.530;2023-02-08T18:20:35;28.27;;;11.77;;
19161;SDS011;9713;48.140;11.530;2023-02-08T18:24:21;25.57;;;11.30;;
19161;SDS011;9713;48.140;11.530;2023-02-08T18:28:04;25.20;;;11.67;;
19161;SDS011;9713;48.140;11.530;2023-02-08T18:31:46;27.37;;;10.90;;
19161;SDS011;9713;48.140;11.530;2023-02-08T18:35:29;28.27;;;12.30;;
19161;SDS011;9713;48.140;11.530;2023-02-08T18:39:13;24.60;;;10.57;;
19161;SDS011;9713;48.140;11.530;2023-02-08T18:43:03;25.60;;;11.17;;
19161;SDS011;9713;48.140;11.530;2023-02-08T18:46:45;30.10;;;11.47;;
19161;SDS011;9713;48.140;11.530;2023-02-08T18:50:29;24.33;;;11.30;;
19161;SDS011;9713;48.140;11.530;2023-02-08T18:54:15;25.47;;;11.20;;
19161;SDS011;9713;48.140;11.530;2023-02-08T18:57:58;24.80;;;11.50;;
19161;SDS011;9713;48.140;11.530;2023-02-08T19:01:40;25.87;;;11.03;;
19161;SDS011;9713;48.140;11.530;2023-02-08T19:05:23;23.83;;;10.87;;
19161;SDS011;9713;48.140;11.530;2023-02-08T19:09:06;24.33;;;11.03;;
19161;SDS011;9713;48.140;11.530;2023-02-08T19:12:50;25.03;;;11.43;;
19161;SDS011;9713;48.140;11.530;2023-02-08T19:16:34;23.07;;;10.07;;
19161;SDS011;9713;48.140;11.530;2023-02-08T19:20:17;25.03;;;10.40;;
19161;SDS011;9713;48.140;11.530;2023-02-08T19:24:00;24.47;;;11.40;;
19161;SDS011;9713;48.140;11.530;2023-02-08T19:27:47;27.23;;;10.97;;
19161;SDS011;9713;48.140;11.530;2023-02-08T19:31:32;24.77;;;10.50;;
19161;SDS011;9713;48.140;11.530;2023-02-08T19:35:15;23.50;;;10.27;;
19161;SDS011;9713;48.140;11.530;2023-02-08T19:38:58;27.97;;;11.33;;
19161;SDS011;9713;48.140;11.530;2023-02-08T19:42:44;23.80;;;11.20;;
19161;SDS011;9713;48.140;11.530;2023-02-08T19:46:26;27.07;;;11.17;;
19161;SDS011;9713;48.140;11.530;2023-02-08T19:50:10;25.20;;;10.20;;
19161;SDS011;9713;48.140;11.530;2023-02-08T19:53:55;24.33;;;10.53;;
19161;SDS011;9713;48.140;11.530;2023-02-08T19:57:38;21.67;;;10.27;;
19161;SDS011;9713;48.140;11.530;2023-02-08T20:01:21;20.80;;;9.57;;
19161;SDS011;9713;48.140;11.530;2023-02-08T20:05:04;25.87;;;10.67;;
19161;SDS011;9713;48.140;11.530;2023-02-08T20:08:49;22.27;;;10.70;;
19161;SDS011;9713;48.140;11.530;2023-02-08T20:12:32;20.07;;;9.80;;
19161;SDS011;9713;48.140;11.530;2023-02-08T20:16:14;23.07;;;10.13;;
19161;SDS011;9713;48.140;11.530;2023-02-08T20:19:57;23.47;;;10.27;;
19161;SDS011;9713;48.140;11.530;2023-02-08T20:23:40;22.53;;;10.87;;
19161;SDS011;9713;48.140;11.530;2023-02-08T20:27:24;21.83;;;10.13;;
19161;SDS011;9713;48.140;11.530;2023-02-08T20:31:13;21.23;;;9.47;;
19161;SDS011;9713;48.140;11.530;2023-02-08T20:34:57;20.73;;;9.67;;
19161;SDS011;9713;48.140;11.530;2023-02-08T20:38:40;20.23;;;9.33;;
19161;SDS011;9713;48.140;11.530;2023-02-08T20:42:25;21.00;;;9.90;;
19161;SDS011;9713;48.140;11.530;2023-02-08T20:46:09;21.17;;;9.73;;
19161;SDS011;9713;48.140;11.530;2023-02-08T20:49:55;21.30;;;9.00;;
19161;SDS011;9713;48.140;11.530;2023-02-08T20:53:41;21.30;;;8.97;;
19161;SDS011;9713;48.140;11.530;2023-02-08T20:57:26;21.27;;;9.40;;
19161;SDS011;9713;48.140;11.530;2023-02-08T21:01:11;23.87;;;9.80;;
19161;SDS011;9713;48.140;11.530;2023-02-08T21:04:56;24.20;;;9.03;;
19161;SDS011;9713;48.140;11.530;2023-02-08T21:08:39;19.70;;;8.93;;
19161;SDS011;9713;48.140;11.530;2023-02-08T21:12:22;24.37;;;9.70;;
19161;SDS011;9713;48.140;11.530;2023-02-08T21:16:07;20.83;;;9.57;;
19161;SDS011;9713;48.140;11.530;2023-02-08T21:19:50;20.93;;;9.20;;
19161;SDS011;9713;48.140;11.530;2023-02-08T21:23:33;22.00;;;10.10;;
19161;SDS011;9713;48.140;11.530;2023-02-08T21:27:16;23.23;;;10.20;;
19161;SDS011;9713;48.140;11.530;2023-02-08T21:31:00;24.87;;;9.33;;
19161;SDS011;9713;48.140;11.530;2023-02-08T21:34:49;19.73;;;9.20;;
19161;SDS011;9713;48.140;11.530;2023-02-08T21:38:32;21.70;;;9.50;;
19161;SDS011;9713;48.140;11.530;2023-02-08T21:42:15;20.27;;;8.83;;
19161;SDS011;9713;48.140;11.530;2023-02-08T21:46:00;24.37;;;9.17;;
19161;SDS011;9713;48.140;11.530;2023-02-08T21:49:43;20.33;;;8.57;;
19161;SDS011;9713;48.140;11.530;2023-02-08T21:53:45;18.83;;;8.60;;
19161;SDS011;9713;48.140;11.530;2023-02-08T21:57:45;17.83;;;8.73;;
19161;SDS011;9713;48.140;11.530;2023-02-08T22:01:28;22.43;;;9.10;;
19161;SDS011;9713;48.140;11.530;2023-02-08T22:05:11;25.97;;;9.40;;
19161;SDS011;9713;48.140;11.530;2023-02-08T22:08:55;23.13;;;8.70;;
19161;SDS011;9713;48.140;11.530;2023-02-08T22:12:38;21.17;;;8.77;;
19161;SDS011;9713;48.140;11.530;2023-02-08T22:16:23;21.70;;;8.77;;